Time;durP1;ratioP1;P1;durP2;ratioP2;P2;SDS_P1;SDS_P2;PMS_P1;PMS_P2;Temp;Humidity;BMP_temperature;BMP_pressure;BME280_temperature;BME280_humidity;BME280_pressure;Samples;Min_cycle;Max_cycle;Signal;HPM_P1;HPM_P2
2022/09/10 00:00:42;;;;;;;10.58;5.25;;;;;;;9.49;100.00;100761.75;1742652;82;21061;-67
2022/09/10 00:03:10;;;;;;;9.70;5.58;;;;;;;9.42;100.00;100754.45;1742679;82;21813;-68
2022/09/10 00:05:41;;;;;;;9.20;5.08;;;;;;;9.39;100.00;100754.98;1742862;82;21879;-69
2022/09/10 00:08:09;;;;;;;10.58;5.65;;;;;;;9.34;100.00;100757.72;1743030;82;21100;-67
2022/09/10 00:10:45;;;;;;;10.05;5.28;;;;;;;9.30;100.00;100760.45;1742678;82;21010;-66
2022/09/10 00:13:13;;;;;;;10.63;5.22;;;;;;;9.24;100.00;100754.85;1742725;82;21082;-66
2022/09/10 00:15:44;;;;;;;8.73;4.92;;;;;;;9.21;100.00;100750.98;1742638;82;21173;-67
2022/09/10 00:18:12;;;;;;;11.33;5.75;;;;;;;9.19;100.00;100752.78;1743032;82;21101;-68
2022/09/10 00:20:53;;;;;;;11.55;5.70;;;;;;;9.17;100.00;100744.06;1742742;82;21037;-68
2022/09/10 00:23:22;;;;;;;10.30;5.22;;;;;;;9.16;100.00;100748.45;1742943;82;21765;-66
2022/09/10 00:25:54;;;;;;;9.70;5.13;;;;;;;9.13;100.00;100731.87;1743053;82;21022;-67
2022/09/10 00:28:22;;;;;;;7.22;4.50;;;;;;;9.13;100.00;100737.12;1742076;82;21125;-67
2022/09/10 00:30:51;;;;;;;8.30;4.70;;;;;;;9.13;100.00;100738.45;1742536;82;21054;-67
2022/09/10 00:33:18;;;;;;;12.20;5.33;;;;;;;9.11;100.00;100738.50;1742649;82;21570;-68
2022/09/10 00:35:45;;;;;;;8.35;4.90;;;;;;;9.12;100.00;100741.98;1742464;82;21081;-68
2022/09/10 00:38:12;;;;;;;10.95;5.15;;;;;;;9.08;100.00;100734.60;1742490;82;21114;-67
2022/09/10 00:40:39;;;;;;;10.08;5.45;;;;;;;9.05;100.00;100725.94;1742669;82;21745;-66
2022/09/10 00:43:19;;;;;;;10.23;4.67;;;;;;;9.03;100.00;100730.76;1732755;82;21077;-68
2022/09/10 00:45:53;;;;;;;9.68;4.15;;;;;;;9.02;100.00;100732.98;1717176;82;21096;-68
2022/09/10 00:48:28;;;;;;;10.82;5.33;;;;;;;9.03;100.00;100729.45;1716750;83;21003;-66
2022/09/10 00:50:55;;;;;;;10.25;5.05;;;;;;;9.03;100.00;100722.02;1717419;82;21070;-67
2022/09/10 00:53:25;;;;;;;9.30;5.08;;;;;;;8.99;100.00;100717.27;1716944;83;21148;-66
2022/09/10 00:55:55;;;;;;;10.28;5.37;;;;;;;8.98;100.00;100727.83;1767554;81;21076;-68
2022/09/10 00:58:22;;;;;;;11.33;4.75;;;;;;;8.96;100.00;100733.10;1771277;81;21151;-69
2022/09/10 01:00:52;;;;;;;10.60;4.72;;;;;;;8.95;100.00;100732.70;1771497;81;21128;-69
2022/09/10 01:03:18;;;;;;;12.73;4.90;;;;;;;8.93;100.00;100729.23;1771128;81;21048;-66
2022/09/10 01:05:46;;;;;;;10.13;5.22;;;;;;;8.92;100.00;100727.94;1771385;81;21124;-68
2022/09/10 01:08:17;;;;;;;10.48;4.97;;;;;;;8.90;100.00;100725.34;1770981;81;21044;-69
2022/09/10 01:11:08;;;;;;;10.53;5.42;;;;;;;8.88;100.00;100725.84;1771458;81;21576;-66
2022/09/10 01:14:15;;;;;;;9.25;5.42;;;;;;;8.85;100.00;100725.03;1771068;81;20994;-66
2022/09/10 01:17:14;;;;;;;9.13;5.00;;;;;;;8.87;100.00;100718.84;1737413;81;21057;-69
2022/09/10 01:20:14;;;;;;;9.38;5.20;;;;;;;8.87;100.00;100716.22;1771212;81;21275;-66
2022/09/10 01:23:19;;;;;;;8.73;5.12;;;;;;;8.86;100.00;100709.25;1771335;81;21092;-67
2022/09/10 01:26:18;;;;;;;9.00;4.97;;;;;;;8.86;100.00;100713.19;1771530;81;21029;-67
2022/09/10 01:29:01;;;;;;;9.03;5.08;;;;;;;8.84;100.00;100716.75;1771584;81;21062;-68
2022/09/10 01:31:40;;;;;;;9.95;5.65;;;;;;;8.83;100.00;100709.29;1771241;81;21057;-67
2022/09/10 01:34:17;;;;;;;9.43;4.92;;;;;;;8.82;100.00;100711.52;1770857;81;21077;-67
2022/09/10 01:36:45;;;;;;;7.28;4.78;;;;;;;8.82;100.00;100712.83;1771013;81;21529;-68
2022/09/10 01:39:14;;;;;;;8.13;5.00;;;;;;;8.79;100.00;100713.76;1771573;81;21056;-67
2022/09/10 01:41:42;;;;;;;8.10;4.58;;;;;;;8.81;100.00;100707.14;1771324;81;21037;-68
2022/09/10 01:44:10;;;;;;;9.50;4.80;;;;;;;8.80;100.00;100710.67;1787010;79;21069;-66
2022/09/10 01:46:53;;;;;;;10.35;5.72;;;;;;;8.80;100.00;100711.98;1794489;79;21255;-68
2022/09/10 01:49:57;;;;;;;12.20;4.95;;;;;;;8.82;100.00;100715.00;1793051;79;21078;-68
2022/09/10 01:52:50;;;;;;;7.83;4.42;;;;;;;8.82;100.00;100722.02;1793853;79;21061;-66
2022/09/10 01:56:10;;;;;;;7.90;4.53;;;;;;;8.81;100.00;100713.28;1764975;79;21061;-68
2022/09/10 01:58:39;;;;;;;9.38;4.15;;;;;;;8.84;100.00;100717.61;1768370;81;21087;-68
2022/09/10 02:01:25;;;;;;;6.92;4.55;;;;;;;8.89;100.00;100720.14;1769704;80;21295;-67
2022/09/10 02:03:59;;;;;;;9.58;4.70;;;;;;;8.90;100.00;100724.02;1772823;80;21077;-68
2022/09/10 02:06:28;;;;;;;9.23;4.85;;;;;;;8.91;100.00;100711.33;1773339;80;21050;-67
2022/09/10 02:08:57;;;;;;;;;;;;;;;8.90;100.00;100714.83;1775744;80;21050;-66
2022/09/10 02:11:25;;;;;;;7.10;4.65;;;;;;;8.90;100.00;100716.59;1773513;80;20463;-67
2022/09/10 02:13:53;;;;;;;7.80;4.50;;;;;;;8.88;100.00;100712.71;1773056;80;21936;-68
2022/09/10 02:16:32;;;;;;;10.55;4.60;;;;;;;8.88;100.00;100715.34;1716941;80;21004;-68
2022/09/10 02:19:00;;;;;;;9.83;4.80;;;;;;;8.87;100.00;100703.54;1752030;80;22101;-68
2022/09/10 02:21:27;;;;;;;10.23;5.20;;;;;;;8.85;100.00;100708.81;1773221;80;21182;-67
2022/09/10 02:24:04;;;;;;;9.35;3.98;;;;;;;8.84;100.00;100708.41;1773022;80;21427;-67
2022/09/10 02:26:29;;;;;;;9.75;4.70;;;;;;;8.83;100.00;100698.78;1772903;80;21942;-66
2022/09/10 02:28:57;;;;;;;9.03;5.08;;;;;;;8.81;100.00;100700.16;1773290;80;21090;-67
2022/09/10 02:31:24;;;;;;;7.95;4.72;;;;;;;8.78;100.00;100702.81;1772872;80;21081;-67
2022/09/10 02:33:51;;;;;;;8.95;5.15;;;;;;;8.76;100.00;100698.50;1773011;80;21097;-66
2022/09/10 02:36:19;;;;;;;8.78;4.95;;;;;;;8.75;100.00;100692.84;1773054;80;21029;-67
2022/09/10 02:38:45;;;;;;;9.55;5.05;;;;;;;8.73;100.00;100686.75;1773197;80;21321;-67
2022/09/10 02:41:14;;;;;;;8.60;4.70;;;;;;;8.71;100.00;100674.95;1773158;80;22246;-67
2022/09/10 02:43:41;;;;;;;9.05;5.45;;;;;;;8.69;100.00;100681.14;1775027;80;21085;-68
2022/09/10 02:46:08;;;;;;;9.83;4.97;;;;;;;8.68;100.00;100682.05;1778882;80;21066;-66
2022/09/10 02:48:38;;;;;;;10.05;5.55;;;;;;;8.68;100.00;100678.97;1778702;80;21596;-69
2022/09/10 02:51:07;;;;;;;10.82;5.40;;;;;;;8.68;100.00;100672.86;1778989;80;22126;-68
2022/09/10 02:53:35;;;;;;;7.28;4.47;;;;;;;8.68;100.00;100668.92;1750239;80;21076;-67
2022/09/10 02:56:03;;;;;;;8.68;4.80;;;;;;;8.67;100.00;100670.66;1748317;82;21666;-68
2022/09/10 02:58:31;;;;;;;8.88;4.92;;;;;;;8.64;100.00;100665.94;1748127;82;21045;-67
2022/09/10 03:01:17;;;;;;;8.88;5.28;;;;;;;8.64;100.00;100664.63;1760865;80;21031;-67
2022/09/10 03:03:42;;;;;;;9.23;5.12;;;;;;;8.61;100.00;100658.99;1749862;80;21095;-67
2022/09/10 03:06:09;;;;;;;11.30;4.90;;;;;;;8.61;100.00;100655.91;1778628;80;21037;-68
2022/09/10 03:08:36;;;;;;;7.33;4.37;;;;;;;8.59;100.00;100645.88;1778723;80;21077;-68
2022/09/10 03:11:03;;;;;;;9.08;5.35;;;;;;;8.60;100.00;100660.77;1779211;80;21429;-68
2022/09/10 03:13:32;;;;;;;6.72;5.15;;;;;;;8.58;100.00;100654.67;1779275;80;21026;-68
2022/09/10 03:16:01;;;;;;;11.85;5.00;;;;;;;8.59;100.00;100657.70;1779041;80;21502;-67
2022/09/10 03:18:27;;;;;;;7.85;5.45;;;;;;;8.57;100.00;100648.98;1779049;80;21030;-68
2022/09/10 03:20:54;;;;;;;11.15;5.37;;;;;;;8.57;100.00;100644.19;1778831;80;20987;-66
2022/09/10 03:23:22;;;;;;;7.65;4.95;;;;;;;8.57;100.00;100655.55;1779059;80;21079;-66
2022/09/10 03:25:49;;;;;;;8.93;5.25;;;;;;;8.54;100.00;100649.06;1779046;80;20994;-66
2022/09/10 03:28:18;;;;;;;9.63;4.50;;;;;;;8.56;100.00;100657.77;1778960;80;21616;-68
2022/09/10 03:30:45;;;;;;;7.53;4.92;;;;;;;8.55;100.00;100653.86;1778856;80;20994;-67
2022/09/10 03:33:13;;;;;;;6.83;4.83;;;;;;;8.57;100.00;100648.98;1779025;80;21037;-69
2022/09/10 03:35:40;;;;;;;11.60;4.80;;;;;;;8.57;100.00;100643.73;1779243;80;21029;-68
2022/09/10 03:38:07;;;;;;;8.88;4.87;;;;;;;8.57;100.00;100648.98;1778860;80;21068;-68
2022/09/10 03:40:36;;;;;;;8.65;5.20;;;;;;;8.55;100.00;100638.96;1779222;80;21053;-67
2022/09/10 03:43:04;;;;;;;9.38;5.10;;;;;;;8.55;100.00;100640.27;1778934;80;21069;-67
2022/09/10 03:45:31;;;;;;;7.85;4.85;;;;;;;8.56;100.00;100640.70;1772843;80;21061;-66
2022/09/10 03:47:58;;;;;;;7.40;4.55;;;;;;;8.52;100.00;100642.97;1772502;80;21116;-67
2022/09/10 03:50:27;;;;;;;8.10;4.95;;;;;;;8.54;100.00;100646.44;1773148;80;21101;-67
2022/09/10 03:52:55;;;;;;;11.08;4.87;;;;;;;8.53;100.00;100638.58;1773418;80;21495;-67
2022/09/10 03:55:22;;;;;;;7.40;4.97;;;;;;;8.56;100.00;100642.02;1751366;80;21049;-67
2022/09/10 03:57:49;;;;;;;11.00;4.95;;;;;;;8.55;100.00;100643.35;1742678;82;21042;-67
2022/09/10 04:00:16;;;;;;;7.83;4.95;;;;;;;8.57;100.00;100638.94;1742717;82;21534;-67
2022/09/10 04:02:45;;;;;;;7.70;4.62;;;;;;;8.58;100.00;100647.22;1742794;82;21050;-68
2022/09/10 04:05:12;;;;;;;7.05;4.60;;;;;;;8.60;100.00;100638.87;1742577;82;21194;-69
2022/09/10 04:07:40;;;;;;;8.68;5.37;;;;;;;8.64;100.00;100642.31;1742571;82;21014;-66
2022/09/10 04:10:08;;;;;;;8.88;4.97;;;;;;;8.66;100.00;100641.83;1742490;82;21057;-67
2022/09/10 04:12:36;;;;;;;8.83;5.78;;;;;;;8.66;100.00;100636.58;1742545;82;21061;-67
2022/09/10 04:15:06;;;;;;;8.93;5.12;;;;;;;8.66;100.00;100647.08;1742689;82;21077;-68
2022/09/10 04:17:33;;;;;;;6.67;5.20;;;;;;;8.68;100.00;100654.03;1721063;82;21188;-67
2022/09/10 04:20:00;;;;;;;6.70;4.90;;;;;;;8.67;100.00;100648.80;1742641;82;21093;-68
2022/09/10 04:22:27;;;;;;;7.20;4.85;;;;;;;8.66;100.00;100636.58;1742753;82;21541;-67
2022/09/10 04:24:54;;;;;;;10.00;5.30;;;;;;;8.65;100.00;100634.41;1721225;82;21025;-67
2022/09/10 04:27:21;;;;;;;9.10;5.70;;;;;;;8.65;100.00;100641.39;1742857;82;21588;-67
2022/09/10 04:29:47;;;;;;;6.65;4.60;;;;;;;8.66;100.00;100639.20;1743132;82;21070;-66
2022/09/10 04:32:15;;;;;;;6.80;5.03;;;;;;;8.64;100.00;100631.80;1742708;82;21034;-67
2022/09/10 04:34:43;;;;;;;8.75;5.50;;;;;;;8.67;100.00;100633.04;1742707;82;21096;-68
2022/09/10 04:37:10;;;;;;;7.97;4.97;;;;;;;8.67;100.00;100635.22;1742619;82;21006;-67
2022/09/10 04:39:37;;;;;;;8.50;5.70;;;;;;;8.66;100.00;100618.20;1742653;82;21382;-68
2022/09/10 04:42:05;;;;;;;8.65;5.30;;;;;;;8.66;100.00;100616.89;1742649;82;21118;-66
2022/09/10 04:44:33;;;;;;;10.53;5.30;;;;;;;8.66;100.00;100615.58;1742474;82;21100;-68
2022/09/10 04:47:01;;;;;;;8.83;5.55;;;;;;;8.67;100.00;100615.97;1742957;82;21045;-67
2022/09/10 04:49:27;;;;;;;9.10;5.42;;;;;;;8.67;100.00;100611.58;1742516;82;21021;-69
2022/09/10 04:51:54;;;;;;;11.00;5.90;;;;;;;8.69;100.00;100603.69;1742714;82;21124;-65
2022/09/10 04:54:22;;;;;;;6.92;4.95;;;;;;;8.70;100.00;100602.34;1721275;82;21289;-67
2022/09/10 04:56:49;;;;;;;8.03;5.25;;;;;;;8.70;100.00;100607.59;1742473;82;21120;-68
2022/09/10 04:59:16;;;;;;;7.17;5.67;;;;;;;8.69;100.00;100607.63;1742660;82;21094;-68
2022/09/10 05:01:44;;;;;;;10.00;5.67;;;;;;;8.69;100.00;100605.85;1742584;82;21567;-67
2022/09/10 05:04:11;;;;;;;7.55;5.75;;;;;;;8.69;100.00;100608.48;1742605;82;21062;-67
2022/09/10 05:06:40;;;;;;;6.22;5.05;;;;;;;8.70;100.00;100604.11;1742528;82;21220;-68
2022/09/10 05:09:10;;;;;;;7.97;5.50;;;;;;;8.70;100.00;100593.16;1742746;82;21088;-69
2022/09/10 05:11:38;;;;;;;7.17;5.08;;;;;;;8.70;100.00;100592.30;1742481;82;21085;-67
2022/09/10 05:14:04;;;;;;;9.98;5.42;;;;;;;8.71;100.00;100597.95;1742740;82;21601;-68
2022/09/10 05:16:33;;;;;;;7.95;5.75;;;;;;;8.72;100.00;100597.93;1742663;82;21585;-67
2022/09/10 05:18:59;;;;;;;7.75;5.15;;;;;;;8.73;100.00;100604.04;1742859;82;21747;-68
2022/09/10 05:21:28;;;;;;;10.08;5.78;;;;;;;8.73;100.00;100596.16;1742415;82;21114;-67
2022/09/10 05:23:57;;;;;;;10.05;6.08;;;;;;;8.71;100.00;100598.81;1742828;82;21101;-66
2022/09/10 05:26:24;;;;;;;13.40;6.20;;;;;;;8.72;100.00;100597.93;1742520;82;21049;-66
2022/09/10 05:28:52;;;;;;;10.10;6.42;;;;;;;8.74;100.00;100602.70;1742740;82;21482;-68
2022/09/10 05:31:19;;;;;;;10.63;7.58;;;;;;;8.74;100.00;100590.89;1742605;82;21801;-68
2022/09/10 05:33:46;;;;;;;9.08;6.12;;;;;;;8.75;100.00;100596.99;1742635;82;20998;-67
2022/09/10 05:36:13;;;;;;;10.93;6.55;;;;;;;8.76;100.00;100585.13;1742290;82;21076;-68
2022/09/10 05:38:40;;;;;;;7.50;6.00;;;;;;;8.75;100.00;100595.22;1742383;82;21077;-66
2022/09/10 05:41:10;;;;;;;6.70;5.75;;;;;;;8.76;100.00;100590.83;1742422;82;21601;-68
2022/09/10 05:43:40;;;;;;;8.05;6.17;;;;;;;8.76;100.00;100594.77;1742580;82;21110;-68
2022/09/10 05:46:09;;;;;;;8.73;6.53;;;;;;;8.74;100.00;100591.31;1742643;82;21042;-69
2022/09/10 05:48:41;;;;;;;9.78;7.25;;;;;;;8.75;100.00;100595.22;1742482;82;21041;-68
2022/09/10 05:51:09;;;;;;;8.88;5.58;;;;;;;8.77;100.00;100588.64;1742638;82;21089;-68
2022/09/10 05:53:37;;;;;;;7.78;5.83;;;;;;;8.77;100.00;100605.70;1742747;82;21034;-67
2022/09/10 05:56:06;;;;;;;8.78;6.50;;;;;;;8.77;100.00;100608.33;1742547;82;21760;-67
2022/09/10 05:58:34;;;;;;;8.88;6.53;;;;;;;8.72;100.00;100595.30;1707031;84;21575;-69
2022/09/10 06:01:01;;;;;;;7.00;5.87;;;;;;;8.73;100.00;100594.84;1742741;82;21037;-67
2022/09/10 06:03:27;;;;;;;9.95;7.37;;;;;;;8.73;100.00;100585.66;1706636;84;21622;-67
2022/09/10 06:05:56;;;;;;;7.87;6.58;;;;;;;8.70;100.00;100588.36;1742200;82;21077;-68
2022/09/10 06:08:24;;;;;;;8.88;6.15;;;;;;;8.70;100.00;100589.67;1721547;82;21205;-68
2022/09/10 06:10:59;;;;;;;8.73;6.92;;;;;;;8.70;100.00;100590.98;1706799;84;21009;-68
2022/09/10 06:13:27;;;;;;;9.63;7.15;;;;;;;8.72;100.00;100597.93;1742635;82;21046;-69
2022/09/10 06:15:55;;;;;;;8.68;7.00;;;;;;;8.71;100.00;100597.95;1706796;84;21516;-68
2022/09/10 06:18:22;;;;;;;9.23;7.20;;;;;;;8.71;100.00;100597.95;1742534;82;21113;-68
2022/09/10 06:20:48;;;;;;;10.13;6.28;;;;;;;8.73;100.00;100596.16;1742307;82;21235;-68
2022/09/10 06:23:17;;;;;;;9.58;7.00;;;;;;;8.74;100.00;100604.44;1742283;82;21090;-67
2022/09/10 06:25:47;;;;;;;8.75;6.33;;;;;;;8.75;100.00;100607.50;1742285;82;21732;-68
2022/09/10 06:28:14;;;;;;;7.83;5.95;;;;;;;8.72;100.00;100602.30;1742595;82;21073;-68
2022/09/10 06:30:41;;;;;;;8.05;5.92;;;;;;;8.73;100.00;100600.09;1706756;84;21052;-69
2022/09/10 06:33:12;;;;;;;8.48;6.50;;;;;;;8.76;100.00;100591.69;1742297;82;21618;-68
2022/09/10 06:35:37;;;;;;;10.32;7.50;;;;;;;8.76;100.00;100596.08;1772971;80;21041;-69
2022/09/10 06:38:04;;;;;;;8.68;7.03;;;;;;;8.76;100.00;100594.31;1773170;80;21089;-68
2022/09/10 06:40:35;;;;;;;11.00;7.37;;;;;;;8.79;100.00;100597.34;1772926;80;21077;-67
2022/09/10 06:43:01;;;;;;;12.45;7.58;;;;;;;8.80;100.00;100608.25;1772850;80;21030;-68
2022/09/10 06:45:39;;;;;;;10.35;7.25;;;;;;;8.80;100.00;100606.94;1769825;80;21546;-67
2022/09/10 06:48:27;;;;;;;11.40;7.75;;;;;;;8.78;100.00;100603.48;1773146;80;21054;-68
2022/09/10 06:50:57;;;;;;;9.80;7.72;;;;;;;8.74;100.00;100595.25;1773186;80;21081;-70
2022/09/10 06:53:28;;;;;;;9.68;7.62;;;;;;;8.75;100.00;100598.30;1772541;80;21529;-67
2022/09/10 06:55:55;;;;;;;11.73;8.03;;;;;;;8.74;100.00;100596.56;1793715;80;21004;-70
2022/09/10 06:58:23;;;;;;;14.23;8.53;;;;;;;8.75;100.00;100595.68;1724319;83;21094;-68
2022/09/10 07:00:51;;;;;;;12.75;7.85;;;;;;;8.77;100.00;100603.08;1794557;80;21014;-69
2022/09/10 07:03:20;;;;;;;15.50;8.33;;;;;;;8.79;100.00;100596.03;1723981;83;21053;-69
2022/09/10 07:05:47;;;;;;;11.43;8.63;;;;;;;8.81;100.00;100603.40;1723874;83;21070;-69
2022/09/10 07:08:16;;;;;;;13.03;8.35;;;;;;;8.84;100.00;100594.16;1794923;80;21096;-69
2022/09/10 07:10:43;;;;;;;13.62;8.30;;;;;;;8.85;100.00;100585.38;1723993;83;21824;-69
2022/09/10 07:13:14;;;;;;;9.40;8.40;;;;;;;8.88;100.00;100585.33;1794899;79;21097;-68
2022/09/10 07:15:46;;;;;;;11.05;8.35;;;;;;;8.88;100.00;100585.75;1792930;79;21081;-68
2022/09/10 07:18:14;;;;;;;9.18;8.00;;;;;;;8.89;100.00;100577.84;1724221;83;21070;-69
2022/09/10 07:20:44;;;;;;;11.95;9.10;;;;;;;8.91;100.00;100582.61;1794699;80;21105;-68
2022/09/10 07:23:14;;;;;;;9.75;7.90;;;;;;;8.94;100.00;100592.19;1794659;80;21168;-67
2022/09/10 07:25:41;;;;;;;9.65;7.83;;;;;;;8.97;100.00;100591.68;1688977;84;21583;-69
2022/09/10 07:28:13;;;;;;;12.30;8.68;;;;;;;8.99;100.00;100589.85;1773097;80;21037;-68
2022/09/10 07:30:42;;;;;;;10.55;8.25;;;;;;;8.95;100.00;100592.16;1773189;80;21108;-67
2022/09/10 07:33:11;;;;;;;10.90;8.78;;;;;;;8.94;100.00;100593.04;1773682;80;21069;-68
2022/09/10 07:35:40;;;;;;;10.40;8.18;;;;;;;8.95;100.00;100597.41;1773644;80;21160;-67
2022/09/10 07:38:13;;;;;;;9.65;7.80;;;;;;;8.95;100.00;100589.53;1773445;80;21035;-69
2022/09/10 07:40:42;;;;;;;11.70;8.40;;;;;;;8.92;100.00;100597.46;1773263;80;21578;-69
2022/09/10 07:43:09;;;;;;;10.18;7.60;;;;;;;8.89;100.00;100590.98;1773708;80;21589;-68
2022/09/10 07:45:37;;;;;;;10.43;8.35;;;;;;;8.88;100.00;100606.34;1773304;80;21018;-68
2022/09/10 07:48:04;;;;;;;11.57;7.67;;;;;;;8.87;100.00;100591.45;1751132;80;21157;-69
2022/09/10 07:50:34;;;;;;;9.98;8.10;;;;;;;8.88;100.00;100602.39;1772840;80;21030;-68
2022/09/10 07:53:01;;;;;;;10.43;7.53;;;;;;;8.89;100.00;100597.55;1773587;80;21471;-68
2022/09/10 07:55:30;;;;;;;9.23;7.40;;;;;;;8.85;100.00;100599.81;1789631;80;21066;-67
2022/09/10 07:57:58;;;;;;;9.13;7.78;;;;;;;8.85;100.00;100593.25;1723916;83;21058;-69
2022/09/10 08:00:25;;;;;;;9.95;8.33;;;;;;;8.85;100.00;100590.63;1724186;82;21120;-68
2022/09/10 08:02:52;;;;;;;10.50;8.03;;;;;;;8.85;100.00;100576.18;1723992;83;21623;-70
2022/09/10 08:05:20;;;;;;;9.28;7.53;;;;;;;8.86;100.00;100583.18;1794528;80;21133;-68
2022/09/10 08:07:48;;;;;;;12.55;7.30;;;;;;;8.88;100.00;100582.70;1723898;83;21058;-68
2022/09/10 08:10:16;;;;;;;11.00;8.08;;;;;;;8.87;100.00;100587.52;1705765;83;21126;-70
2022/09/10 08:12:44;;;;;;;10.10;8.30;;;;;;;8.85;100.00;100572.23;1794483;80;20995;-70
2022/09/10 08:15:11;;;;;;;9.55;7.17;;;;;;;8.87;100.00;100570.44;1794525;80;21050;-68
2022/09/10 08:17:39;;;;;;;8.20;6.75;;;;;;;8.86;100.00;100575.72;1724045;83;21047;-69
2022/09/10 08:20:08;;;;;;;9.05;7.70;;;;;;;8.87;100.00;100572.21;1794723;80;21489;-67
2022/09/10 08:22:37;;;;;;;9.43;7.40;;;;;;;8.88;100.00;100566.94;1724367;83;21058;-69
2022/09/10 08:25:05;;;;;;;8.33;6.85;;;;;;;8.85;100.00;100570.92;1795054;79;21095;-69
2022/09/10 08:27:34;;;;;;;9.75;7.15;;;;;;;8.87;100.00;100578.33;1724089;83;21016;-69
2022/09/10 08:30:02;;;;;;;8.73;7.20;;;;;;;8.81;100.00;100578.03;1724654;83;21067;-68
2022/09/10 08:32:30;;;;;;;11.93;7.83;;;;;;;8.80;100.00;100580.68;1794622;80;21041;-69
2022/09/10 08:34:57;;;;;;;11.08;7.22;;;;;;;8.82;100.00;100570.55;1774603;79;21953;-69
2022/09/10 08:37:24;;;;;;;11.53;8.00;;;;;;;8.84;100.00;100567.05;1723957;82;21801;-68
2022/09/10 08:39:50;;;;;;;10.23;8.18;;;;;;;8.83;100.00;100559.59;1724021;83;21047;-69
2022/09/10 08:42:22;;;;;;;10.65;7.83;;;;;;;8.84;100.00;100563.96;1724147;83;21022;-68
2022/09/10 08:44:56;;;;;;;12.30;8.30;;;;;;;8.87;100.00;100564.34;1724317;83;21026;-69
2022/09/10 08:47:48;;;;;;;12.20;8.53;;;;;;;8.87;100.00;100559.08;1724105;83;21094;-69
2022/09/10 08:50:29;;;;;;;11.20;7.72;;;;;;;8.84;100.00;100554.77;1724316;83;21567;-69
2022/09/10 08:53:31;;;;;;;10.50;8.78;;;;;;;8.82;100.00;100565.75;1724330;83;21078;-66
2022/09/10 08:56:06;;;;;;;12.23;8.40;;;;;;;8.81;100.00;100562.70;1769326;80;21035;-68
2022/09/10 08:58:44;;;;;;;11.68;8.35;;;;;;;8.83;100.00;100553.02;1768062;80;21075;-69
2022/09/10 09:01:34;;;;;;;15.08;8.18;;;;;;;8.84;100.00;100546.89;1768762;81;21031;-68
2022/09/10 09:04:09;;;;;;;12.93;9.28;;;;;;;8.87;100.00;100545.49;1768325;81;21175;-68
2022/09/10 09:06:44;;;;;;;12.13;8.65;;;;;;;8.81;100.00;100552.19;1760141;80;21044;-69
2022/09/10 09:09:11;;;;;;;10.25;7.28;;;;;;;8.81;100.00;100531.18;1767799;80;21027;-67
2022/09/10 09:11:53;;;;;;;10.80;7.87;;;;;;;8.83;100.00;100535.95;1768624;81;21512;-68
2022/09/10 09:14:53;;;;;;;12.98;8.85;;;;;;;8.84;100.00;100533.75;1768521;81;21019;-68
2022/09/10 09:17:56;;;;;;;12.43;8.93;;;;;;;8.87;100.00;100533.67;1673937;85;21135;-68
2022/09/10 09:20:41;;;;;;;14.63;9.45;;;;;;;8.85;100.00;100527.59;1768163;81;21024;-67
2022/09/10 09:23:25;;;;;;;12.90;8.65;;;;;;;8.87;100.00;100532.81;1682961;84;21051;-67
2022/09/10 09:26:10;;;;;;;9.73;7.35;;;;;;;8.86;100.00;100534.59;1768276;81;21016;-68
2022/09/10 09:29:01;;;;;;;11.73;8.88;;;;;;;8.82;100.00;100536.86;1744101;80;21535;-68
2022/09/10 09:31:33;;;;;;;11.00;8.23;;;;;;;8.84;100.00;100523.25;1768090;81;21103;-67
2022/09/10 09:34:07;;;;;;;16.07;9.13;;;;;;;8.82;100.00;100534.23;1767761;80;21046;-68
2022/09/10 09:36:38;;;;;;;12.45;9.00;;;;;;;8.79;100.00;100527.30;1731228;80;21048;-68
2022/09/10 09:39:32;;;;;;;11.10;8.03;;;;;;;8.82;100.00;100519.34;1768237;81;21052;-69
2022/09/10 09:42:08;;;;;;;11.85;8.43;;;;;;;8.84;100.00;100537.70;1768299;81;21102;-68
2022/09/10 09:44:52;;;;;;;14.63;9.35;;;;;;;8.81;100.00;100521.98;1768118;81;21898;-69
2022/09/10 09:47:18;;;;;;;13.05;9.10;;;;;;;8.78;100.00;100529.95;1768151;81;21050;-68
2022/09/10 09:49:47;;;;;;;12.43;9.25;;;;;;;8.77;100.00;100530.41;1768362;81;21071;-69
2022/09/10 09:52:21;;;;;;;13.53;9.63;;;;;;;8.77;100.00;100526.92;1768297;81;21029;-68
2022/09/10 09:54:58;;;;;;;17.10;9.45;;;;;;;8.79;100.00;100528.61;1780755;80;21638;-67
2022/09/10 09:57:24;;;;;;;11.10;8.30;;;;;;;8.79;100.00;100519.88;1724007;83;21757;-68
2022/09/10 09:59:51;;;;;;;15.50;10.15;;;;;;;8.80;100.00;100532.09;1723502;83;21078;-68
2022/09/10 10:02:23;;;;;;;14.18;10.32;;;;;;;8.78;100.00;100511.56;1794059;79;21238;-69
2022/09/10 10:05:23;;;;;;;13.83;9.63;;;;;;;8.75;100.00;100520.84;1723498;83;21083;-67
2022/09/10 10:07:50;;;;;;;15.63;11.20;;;;;;;8.75;100.00;100520.84;1794261;80;20999;-68
2022/09/10 10:10:24;;;;;;;12.82;9.93;;;;;;;8.75;100.00;100514.27;1794473;79;21812;-69
2022/09/10 10:12:53;;;;;;;12.33;9.98;;;;;;;8.79;100.00;100506.75;1723671;83;21051;-68
2022/09/10 10:15:40;;;;;;;14.10;9.25;;;;;;;8.77;100.00;100505.91;1723926;83;21067;-68
2022/09/10 10:18:30;;;;;;;13.32;10.45;;;;;;;8.80;100.00;100509.77;1723762;83;21562;-68
2022/09/10 10:21:22;;;;;;;14.38;10.38;;;;;;;8.79;100.00;100505.44;1794797;79;21062;-69
2022/09/10 10:23:48;;;;;;;14.20;10.03;;;;;;;8.77;100.00;100492.78;1722325;82;21137;-69
2022/09/10 10:26:29;;;;;;;14.28;9.85;;;;;;;8.79;100.00;100490.53;1724200;83;21019;-69
2022/09/10 10:29:05;;;;;;;14.53;10.20;;;;;;;8.78;100.00;100487.47;1794772;79;21565;-69
2022/09/10 10:31:44;;;;;;;12.47;9.30;;;;;;;8.80;100.00;100488.77;1786596;79;21065;-68
2022/09/10 10:34:19;;;;;;;14.45;9.68;;;;;;;8.85;100.00;100500.02;1794574;79;22265;-67
2022/09/10 10:37:09;;;;;;;13.93;11.15;;;;;;;8.86;100.00;100480.75;1794632;80;21123;-68
2022/09/10 10:40:03;;;;;;;13.78;10.18;;;;;;;8.91;100.00;100489.83;1704944;83;21066;-69
2022/09/10 10:42:45;;;;;;;14.55;10.10;;;;;;;8.92;100.00;100480.58;1724055;82;21059;-70
2022/09/10 10:45:25;;;;;;;12.40;9.20;;;;;;;8.95;100.00;100475.27;1724015;83;21285;-68
2022/09/10 10:48:02;;;;;;;13.05;10.23;;;;;;;8.94;100.00;100470.89;1794756;79;21069;-68
2022/09/10 10:51:10;;;;;;;13.53;11.12;;;;;;;8.94;100.00;100464.33;1794464;80;21533;-67
2022/09/10 10:54:03;;;;;;;13.28;10.58;;;;;;;8.97;100.00;100464.27;1794522;80;21007;-67
2022/09/10 10:56:44;;;;;;;15.23;10.55;;;;;;;9.02;100.00;100467.64;1738407;82;21085;-68
2022/09/10 11:01:06;;;;;;;15.90;11.12;;;;;;;9.00;100.00;100456.77;1795644;79;28039;-68
2022/09/10 11:03:43;;;;;;;13.20;9.58;;;;;;;8.97;100.00;100460.76;1756159;81;21080;-69
2022/09/10 11:06:14;;;;;;;13.28;11.05;;;;;;;8.96;100.00;100446.77;1707838;81;21145;-69
2022/09/10 11:08:54;;;;;;;14.13;11.88;;;;;;;9.12;100.00;100453.81;1756022;81;21056;-68
2022/09/10 11:11:32;;;;;;;13.38;10.93;;;;;;;9.18;100.00;100447.55;1755091;81;21038;-68
2022/09/10 11:14:16;;;;;;;14.65;11.93;;;;;;;9.18;100.00;100448.41;1733775;81;21069;-68
2022/09/10 11:16:47;;;;;;;16.55;12.33;;;;;;;9.21;100.00;100440.89;1755984;81;21149;-68
2022/09/10 11:19:37;;;;;;;13.35;11.43;;;;;;;9.22;100.00;100455.74;1756330;81;21581;-68
2022/09/10 11:22:18;;;;;;;15.20;11.20;;;;;;;9.19;100.00;100442.69;1756297;81;20934;-69
2022/09/10 11:24:50;;;;;;;14.47;11.57;;;;;;;9.23;100.00;100439.09;1755801;81;21104;-69
2022/09/10 11:27:30;;;;;;;16.07;11.45;;;;;;;9.22;100.00;100439.97;1756432;81;21080;-68
2022/09/10 11:30:15;;;;;;;13.55;11.28;;;;;;;9.25;100.00;100426.77;1756293;81;21177;-68
2022/09/10 11:33:12;;;;;;;16.73;11.95;;;;;;;9.26;100.00;100432.42;1756085;81;21117;-69
2022/09/10 11:36:24;;;;;;;14.83;11.10;;;;;;;9.23;100.00;100422.86;1756132;81;21158;-69
2022/09/10 11:39:25;;;;;;;20.23;14.43;;;;;;;9.22;100.00;100417.21;1760758;80;21060;-69
2022/09/10 11:41:53;;;;;;;15.35;12.23;;;;;;;9.23;100.00;100415.44;1739692;82;21034;-68
2022/09/10 11:44:49;;;;;;;19.85;14.68;;;;;;;9.23;100.00;100410.18;1710222;83;21073;-69
2022/09/10 11:47:27;;;;;;;17.42;14.60;;;;;;;9.27;100.00;100409.20;1719108;83;21095;-69